sensor_id;sensor_type;location;lat;lon;timestamp;P1;durP1;ratioP1;P2;durP2;ratioP2
39454;SDS011;25155;41.890;23.446;2023-04-06T00:01:26;8.45;;;6.85;;
39454;SDS011;25155;41.890;23.446;2023-04-06T00:03:53;8.13;;;6.60;;
39454;SDS011;25155;41.890;23.446;2023-04-06T00:06:20;9.02;;;6.88;;
39454;SDS011;25155;41.890;23.446;2023-04-06T00:08:48;8.50;;;6.57;;
39454;SDS011;25155;41.890;23.446;2023-04-06T00:11:16;7.75;;;6.03;;
39454;SDS011;25155;41.890;23.446;2023-04-06T00:13:45;8.43;;;7.03;;
39454;SDS011;25155;41.890;23.446;2023-04-06T00:16:12;7.68;;;6.40;;
39454;SDS011;25155;41.890;23.446;2023-04-06T00:18:39;8.18;;;6.47;;
39454;SDS011;25155;41.890;23.446;2023-04-06T00:21:06;8.32;;;6.50;;
39454;SDS011;25155;41.890;23.446;2023-04-06T00:23:33;8.38;;;6.20;;
39454;SDS011;25155;41.890;23.446;2023-04-06T00:26:00;7.75;;;6.05;;
39454;SDS011;25155;41.890;23.446;2023-04-06T00:28:27;8.18;;;6.38;;
39454;SDS011;25155;41.890;23.446;2023-04-06T00:30:56;9.82;;;7.18;;
39454;SDS011;25155;41.890;23.446;2023-04-06T00:33:23;8.85;;;6.85;;
39454;SDS011;25155;41.890;23.446;2023-04-06T00:35:51;9.30;;;7.05;;
39454;SDS011;25155;41.890;23.446;2023-04-06T00:38:18;9.10;;;7.20;;
39454;SDS011;25155;41.890;23.446;2023-04-06T00:40:45;8.80;;;7.00;;
39454;SDS011;25155;41.890;23.446;2023-04-06T00:43:13;8.65;;;6.63;;
39454;SDS011;25155;41.890;23.446;2023-04-06T00:45:40;8.50;;;6.80;;
39454;SDS011;25155;41.890;23.446;2023-04-06T00:48:10;9.25;;;7.35;;
39454;SDS011;25155;41.890;23.446;2023-04-06T00:50:38;8.77;;;6.95;;
39454;SDS011;25155;41.890;23.446;2023-04-06T00:53:06;8.98;;;6.63;;
39454;SDS011;25155;41.890;23.446;2023-04-06T00:55:33;10.25;;;7.70;;
39454;SDS011;25155;41.890;23.446;2023-04-06T00:58:01;8.05;;;6.70;;
39454;SDS011;25155;41.890;23.446;2023-04-06T01:00:29;9.43;;;7.18;;
39454;SDS011;25155;41.890;23.446;2023-04-06T01:02:56;8.48;;;6.78;;
39454;SDS011;25155;41.890;23.446;2023-04-06T01:05:25;7.57;;;5.85;;
39454;SDS011;25155;41.890;23.446;2023-04-06T01:07:52;8.60;;;6.88;;
39454;SDS011;25155;41.890;23.446;2023-04-06T01:10:22;8.93;;;6.90;;
39454;SDS011;25155;41.890;23.446;2023-04-06T01:12:51;8.73;;;6.95;;
39454;SDS011;25155;41.890;23.446;2023-04-06T01:15:18;8.65;;;6.45;;
39454;SDS011;25155;41.890;23.446;2023-04-06T01:17:47;8.20;;;6.47;;
39454;SDS011;25155;41.890;23.446;2023-04-06T01:20:14;9.45;;;7.47;;
39454;SDS011;25155;41.890;23.446;2023-04-06T01:22:43;8.57;;;6.50;;
39454;SDS011;25155;41.890;23.446;2023-04-06T01:25:10;7.80;;;6.05;;
39454;SDS011;25155;41.890;23.446;2023-04-06T01:27:37;8.45;;;6.70;;
39454;SDS011;25155;41.890;23.446;2023-04-06T01:30:05;9.77;;;6.97;;
39454;SDS011;25155;41.890;23.446;2023-04-06T01:32:33;9.32;;;7.30;;
39454;SDS011;25155;41.890;23.446;2023-04-06T01:35:00;8.25;;;6.47;;
39454;SDS011;25155;41.890;23.446;2023-04-06T01:37:27;8.23;;;6.80;;
39454;SDS011;25155;41.890;23.446;2023-04-06T01:39:58;9.07;;;7.38;;
39454;SDS011;25155;41.890;23.446;2023-04-06T01:42:26;8.32;;;6.57;;
39454;SDS011;25155;41.890;23.446;2023-04-06T01:44:53;10.65;;;7.43;;
39454;SDS011;25155;41.890;23.446;2023-04-06T01:47:20;8.85;;;6.95;;
39454;SDS011;25155;41.890;23.446;2023-04-06T01:49:47;9.05;;;7.32;;
39454;SDS011;25155;41.890;23.446;2023-04-06T01:52:15;8.40;;;6.38;;
39454;SDS011;25155;41.890;23.446;2023-04-06T01:54:42;9.68;;;7.13;;
39454;SDS011;25155;41.890;23.446;2023-04-06T01:57:10;9.52;;;7.30;;
39454;SDS011;25155;41.890;23.446;2023-04-06T01:59:38;8.63;;;7.13;;
39454;SDS011;25155;41.890;23.446;2023-04-06T02:02:05;11.43;;;7.65;;
39454;SDS011;25155;41.890;23.446;2023-04-06T02:04:32;8.25;;;6.90;;
39454;SDS011;25155;41.890;23.446;2023-04-06T02:06:59;11.25;;;8.65;;
39454;SDS011;25155;41.890;23.446;2023-04-06T02:09:26;9.55;;;8.13;;
39454;SDS011;25155;41.890;23.446;2023-04-06T02:11:54;11.00;;;9.32;;
39454;SDS011;25155;41.890;23.446;2023-04-06T02:14:24;8.95;;;7.30;;
39454;SDS011;25155;41.890;23.446;2023-04-06T02:16:52;10.45;;;7.78;;
39454;SDS011;25155;41.890;23.446;2023-04-06T02:19:19;10.32;;;8.10;;
39454;SDS011;25155;41.890;23.446;2023-04-06T02:21:47;9.30;;;7.35;;
39454;SDS011;25155;41.890;23.446;2023-04-06T02:24:15;10.65;;;8.35;;
39454;SDS011;25155;41.890;23.446;2023-04-06T02:26:42;9.63;;;7.82;;
39454;SDS011;25155;41.890;23.446;2023-04-06T02:29:09;10.48;;;7.80;;
39454;SDS011;25155;41.890;23.446;2023-04-06T02:31:38;10.82;;;7.90;;
39454;SDS011;25155;41.890;23.446;2023-04-06T02:34:05;9.05;;;7.45;;
39454;SDS011;25155;41.890;23.446;2023-04-06T02:36:32;8.93;;;6.90;;
39454;SDS011;25155;41.890;23.446;2023-04-06T02:38:59;9.65;;;7.78;;
39454;SDS011;25155;41.890;23.446;2023-04-06T02:41:27;10.05;;;7.43;;
39454;SDS011;25155;41.890;23.446;2023-04-06T02:43:54;9.07;;;7.43;;
39454;SDS011;25155;41.890;23.446;2023-04-06T02:46:21;9.63;;;7.15;;
39454;SDS011;25155;41.890;23.446;2023-04-06T02:48:50;9.70;;;7.47;;
39454;SDS011;25155;41.890;23.446;2023-04-06T02:51:17;8.15;;;6.75;;
39454;SDS011;25155;41.890;23.446;2023-04-06T02:53:44;9.10;;;7.30;;
39454;SDS011;25155;41.890;23.446;2023-04-06T02:56:11;9.15;;;7.30;;
39454;SDS011;25155;41.890;23.446;2023-04-06T02:58:39;10.77;;;6.82;;
39454;SDS011;25155;41.890;23.446;2023-04-06T03:01:06;8.98;;;7.50;;
39454;SDS011;25155;41.890;23.446;2023-04-06T03:03:33;10.38;;;6.63;;
39454;SDS011;25155;41.890;23.446;2023-04-06T03:06:02;7.97;;;6.45;;
39454;SDS011;25155;41.890;23.446;2023-04-06T03:08:30;8.50;;;6.18;;
39454;SDS011;25155;41.890;23.446;2023-04-06T03:10:57;7.53;;;5.93;;
39454;SDS011;25155;41.890;23.446;2023-04-06T03:13:25;9.70;;;6.88;;
39454;SDS011;25155;41.890;23.446;2023-04-06T03:15:52;8.10;;;6.35;;
39454;SDS011;25155;41.890;23.446;2023-04-06T03:18:21;7.93;;;5.85;;
39454;SDS011;25155;41.890;23.446;2023-04-06T03:20:49;7.15;;;6.03;;
39454;SDS011;25155;41.890;23.446;2023-04-06T03:23:20;8.38;;;6.20;;
39454;SDS011;25155;41.890;23.446;2023-04-06T03:25:48;8.15;;;6.25;;
39454;SDS011;25155;41.890;23.446;2023-04-06T03:28:15;8.20;;;6.55;;
39454;SDS011;25155;41.890;23.446;2023-04-06T03:30:42;8.90;;;6.65;;
39454;SDS011;25155;41.890;23.446;2023-04-06T03:33:10;9.45;;;7.13;;
39454;SDS011;25155;41.890;23.446;2023-04-06T03:35:37;8.48;;;6.55;;
39454;SDS011;25155;41.890;23.446;2023-04-06T03:38:04;9.07;;;6.90;;
39454;SDS011;25155;41.890;23.446;2023-04-06T03:40:33;8.23;;;6.18;;
39454;SDS011;25155;41.890;23.446;2023-04-06T03:43:00;8.50;;;6.95;;
39454;SDS011;25155;41.890;23.446;2023-04-06T03:45:27;8.00;;;6.25;;
39454;SDS011;25155;41.890;23.446;2023-04-06T03:47:55;9.18;;;7.03;;
39454;SDS011;25155;41.890;23.446;2023-04-06T03:50:22;10.20;;;8.20;;
39454;SDS011;25155;41.890;23.446;2023-04-06T03:52:49;11.45;;;8.15;;
39454;SDS011;25155;41.890;23.446;2023-04-06T03:55:17;10.52;;;7.93;;
39454;SDS011;25155;41.890;23.446;2023-04-06T03:57:46;10.52;;;8.05;;
39454;SDS011;25155;41.890;23.446;2023-04-06T04:00:13;11.20;;;8.52;;
39454;SDS011;25155;41.890;23.446;2023-04-06T04:02:41;12.48;;;9.90;;
39454;SDS011;25155;41.890;23.446;2023-04-06T04:05:08;9.57;;;7.65;;
39454;SDS011;25155;41.890;23.446;2023-04-06T04:07:36;8.82;;;7.15;;
39454;SDS011;25155;41.890;23.446;2023-04-06T04:10:04;9.85;;;6.57;;
39454;SDS011;25155;41.890;23.446;2023-04-06T04:12:31;11.85;;;9.50;;
39454;SDS011;25155;41.890;23.446;2023-04-06T04:15:00;10.00;;;7.93;;
39454;SDS011;25155;41.890;23.446;2023-04-06T04:17:28;11.95;;;8.90;;
39454;SDS011;25155;41.890;23.446;2023-04-06T04:19:55;11.52;;;8.88;;
39454;SDS011;25155;41.890;23.446;2023-04-06T04:22:22;9.60;;;7.28;;
39454;SDS011;25155;41.890;23.446;2023-04-06T04:24:50;9.80;;;7.40;;
39454;SDS011;25155;41.890;23.446;2023-04-06T04:27:17;7.78;;;5.78;;
39454;SDS011;25155;41.890;23.446;2023-04-06T04:29:44;6.88;;;5.38;;
39454;SDS011;25155;41.890;23.446;2023-04-06T04:32:13;7.13;;;5.30;;
39454;SDS011;25155;41.890;23.446;2023-04-06T04:34:40;7.68;;;5.78;;
39454;SDS011;25155;41.890;23.446;2023-04-06T04:37:08;11.73;;;9.05;;
39454;SDS011;25155;41.890;23.446;2023-04-06T04:39:35;13.02;;;9.32;;
39454;SDS011;25155;41.890;23.446;2023-04-06T04:42:02;10.50;;;8.05;;
39454;SDS011;25155;41.890;23.446;2023-04-06T04:44:29;14.65;;;10.93;;
39454;SDS011;25155;41.890;23.446;2023-04-06T04:46:57;13.57;;;9.70;;
39454;SDS011;25155;41.890;23.446;2023-04-06T04:49:25;15.05;;;11.43;;
39454;SDS011;25155;41.890;23.446;2023-04-06T04:51:53;11.57;;;8.75;;
39454;SDS011;25155;41.890;23.446;2023-04-06T04:54:20;12.45;;;8.63;;
39454;SDS011;25155;41.890;23.446;2023-04-06T04:56:47;13.02;;;9.18;;
39454;SDS011;25155;41.890;23.446;2023-04-06T04:59:15;12.25;;;8.93;;
39454;SDS011;25155;41.890;23.446;2023-04-06T05:01:42;11.95;;;8.35;;
39454;SDS011;25155;41.890;23.446;2023-04-06T05:04:10;10.65;;;8.07;;
39454;SDS011;25155;41.890;23.446;2023-04-06T05:06:38;10.38;;;8.18;;
39454;SDS011;25155;41.890;23.446;2023-04-06T05:09:05;10.32;;;7.53;;
39454;SDS011;25155;41.890;23.446;2023-04-06T05:11:33;12.15;;;8.98;;
39454;SDS011;25155;41.890;23.446;2023-04-06T05:14:00;11.30;;;8.65;;
39454;SDS011;25155;41.890;23.446;2023-04-06T05:16:27;12.32;;;9.65;;
39454;SDS011;25155;41.890;23.446;2023-04-06T05:18:55;11.32;;;8.45;;
39454;SDS011;25155;41.890;23.446;2023-04-06T05:21:23;12.77;;;9.88;;
39454;SDS011;25155;41.890;23.446;2023-04-06T05:23:52;11.48;;;8.73;;
39454;SDS011;25155;41.890;23.446;2023-04-06T05:26:20;12.25;;;9.82;;
39454;SDS011;25155;41.890;23.446;2023-04-06T05:28:48;10.63;;;8.30;;
39454;SDS011;25155;41.890;23.446;2023-04-06T05:31:15;11.10;;;8.15;;
39454;SDS011;25155;41.890;23.446;2023-04-06T05:33:42;10.73;;;8.20;;
39454;SDS011;25155;41.890;23.446;2023-04-06T05:36:10;11.05;;;8.82;;
39454;SDS011;25155;41.890;23.446;2023-04-06T05:38:37;11.25;;;8.27;;
39454;SDS011;25155;41.890;23.446;2023-04-06T05:41:05;12.52;;;9.75;;
39454;SDS011;25155;41.890;23.446;2023-04-06T05:43:33;13.02;;;10.40;;
39454;SDS011;25155;41.890;23.446;2023-04-06T05:46:00;13.35;;;10.10;;
39454;SDS011;25155;41.890;23.446;2023-04-06T05:48:27;11.00;;;8.60;;
39454;SDS011;25155;41.890;23.446;2023-04-06T05:50:54;11.15;;;9.43;;
39454;SDS011;25155;41.890;23.446;2023-04-06T05:53:21;11.07;;;9.25;;
39454;SDS011;25155;41.890;23.446;2023-04-06T05:55:51;11.45;;;8.38;;
39454;SDS011;25155;41.890;23.446;2023-04-06T05:58:19;10.00;;;7.88;;
39454;SDS011;25155;41.890;23.446;2023-04-06T06:00:47;11.48;;;9.20;;
39454;SDS011;25155;41.890;23.446;2023-04-06T06:03:14;11.60;;;9.23;;
39454;SDS011;25155;41.890;23.446;2023-04-06T06:05:43;11.90;;;9.77;;
39454;SDS011;25155;41.890;23.446;2023-04-06T06:08:10;10.73;;;8.80;;
39454;SDS011;25155;41.890;23.446;2023-04-06T06:10:38;10.90;;;8.20;;
39454;SDS011;25155;41.890;23.446;2023-04-06T06:13:05;11.25;;;9.05;;
39454;SDS011;25155;41.890;23.446;2023-04-06T06:15:34;10.82;;;8.32;;
39454;SDS011;25155;41.890;23.446;2023-04-06T06:18:01;10.18;;;8.15;;
39454;SDS011;25155;41.890;23.446;2023-04-06T06:20:28;11.70;;;8.60;;
39454;SDS011;25155;41.890;23.446;2023-04-06T06:22:55;9.68;;;7.95;;
39454;SDS011;25155;41.890;23.446;2023-04-06T06:25:23;9.50;;;7.63;;
39454;SDS011;25155;41.890;23.446;2023-04-06T06:27:50;10.93;;;8.55;;
39454;SDS011;25155;41.890;23.446;2023-04-06T06:30:17;12.27;;;9.88;;
39454;SDS011;25155;41.890;23.446;2023-04-06T06:32:46;13.27;;;9.25;;
39454;SDS011;25155;41.890;23.446;2023-04-06T06:35:13;14.02;;;10.88;;
39454;SDS011;25155;41.890;23.446;2023-04-06T06:37:40;8.82;;;6.88;;
39454;SDS011;25155;41.890;23.446;2023-04-06T06:40:08;8.68;;;6.50;;
39454;SDS011;25155;41.890;23.446;2023-04-06T06:42:38;8.15;;;6.50;;
39454;SDS011;25155;41.890;23.446;2023-04-06T06:45:06;9.32;;;6.45;;
39454;SDS011;25155;41.890;23.446;2023-04-06T06:47:34;8.35;;;6.28;;
39454;SDS011;25155;41.890;23.446;2023-04-06T06:50:03;9.57;;;6.28;;
39454;SDS011;25155;41.890;23.446;2023-04-06T06:52:31;8.73;;;6.53;;
39454;SDS011;25155;41.890;23.446;2023-04-06T06:54:58;7.60;;;6.05;;
39454;SDS011;25155;41.890;23.446;2023-04-06T06:57:25;9.55;;;7.28;;
39454;SDS011;25155;41.890;23.446;2023-04-06T06:59:53;8.90;;;7.00;;
39454;SDS011;25155;41.890;23.446;2023-04-06T07:02:20;9.40;;;6.70;;
39454;SDS011;25155;41.890;23.446;2023-04-06T07:04:47;10.30;;;7.10;;
39454;SDS011;25155;41.890;23.446;2023-04-06T07:07:16;9.57;;;6.88;;
39454;SDS011;25155;41.890;23.446;2023-04-06T07:09:43;8.93;;;7.00;;
39454;SDS011;25155;41.890;23.446;2023-04-06T07:12:10;9.93;;;6.80;;
39454;SDS011;25155;41.890;23.446;2023-04-06T07:14:38;10.77;;;7.50;;
39454;SDS011;25155;41.890;23.446;2023-04-06T07:17:05;10.32;;;7.68;;
39454;SDS011;25155;41.890;23.446;2023-04-06T07:19:32;12.20;;;8.48;;
39454;SDS011;25155;41.890;23.446;2023-04-06T07:21:59;9.68;;;7.13;;
39454;SDS011;25155;41.890;23.446;2023-04-06T07:24:29;9.18;;;7.47;;
39454;SDS011;25155;41.890;23.446;2023-04-06T07:26:57;15.07;;;10.80;;
39454;SDS011;25155;41.890;23.446;2023-04-06T07:29:25;13.07;;;9.35;;
39454;SDS011;25155;41.890;23.446;2023-04-06T07:31:53;8.85;;;7.05;;
39454;SDS011;25155;41.890;23.446;2023-04-06T07:34:20;8.68;;;6.68;;
39454;SDS011;25155;41.890;23.446;2023-04-06T07:36:47;9.75;;;6.65;;
39454;SDS011;25155;41.890;23.446;2023-04-06T07:39:14;9.43;;;7.03;;
39454;SDS011;25155;41.890;23.446;2023-04-06T07:41:43;8.45;;;6.55;;
39454;SDS011;25155;41.890;23.446;2023-04-06T07:44:10;10.70;;;7.53;;
39454;SDS011;25155;41.890;23.446;2023-04-06T07:46:37;9.32;;;7.40;;
39454;SDS011;25155;41.890;23.446;2023-04-06T07:49:05;10.32;;;7.22;;
39454;SDS011;25155;41.890;23.446;2023-04-06T07:51:32;10.18;;;7.88;;
39454;SDS011;25155;41.890;23.446;2023-04-06T07:54:01;10.75;;;7.68;;
39454;SDS011;25155;41.890;23.446;2023-04-06T07:56:29;15.77;;;10.60;;
39454;SDS011;25155;41.890;23.446;2023-04-06T07:58:57;22.58;;;11.80;;
39454;SDS011;25155;41.890;23.446;2023-04-06T08:01:25;9.95;;;7.03;;
39454;SDS011;25155;41.890;23.446;2023-04-06T08:03:52;9.05;;;7.05;;
39454;SDS011;25155;41.890;23.446;2023-04-06T08:06:20;9.10;;;6.88;;
39454;SDS011;25155;41.890;23.446;2023-04-06T08:08:48;8.60;;;6.85;;
39454;SDS011;25155;41.890;23.446;2023-04-06T08:11:15;8.15;;;6.60;;
39454;SDS011;25155;41.890;23.446;2023-04-06T08:13:42;7.85;;;6.20;;
39454;SDS011;25155;41.890;23.446;2023-04-06T08:16:11;7.90;;;6.35;;
39454;SDS011;25155;41.890;23.446;2023-04-06T08:18:38;8.68;;;7.15;;
39454;SDS011;25155;41.890;23.446;2023-04-06T08:21:05;8.25;;;6.50;;
39454;SDS011;25155;41.890;23.446;2023-04-06T08:23:33;8.30;;;6.78;;
39454;SDS011;25155;41.890;23.446;2023-04-06T08:26:00;7.93;;;6.05;;
39454;SDS011;25155;41.890;23.446;2023-04-06T08:28:27;8.13;;;6.43;;
39454;SDS011;25155;41.890;23.446;2023-04-06T08:30:54;7.60;;;5.68;;
39454;SDS011;25155;41.890;23.446;2023-04-06T08:33:23;6.97;;;5.40;;
39454;SDS011;25155;41.890;23.446;2023-04-06T08:35:50;9.35;;;6.03;;
39454;SDS011;25155;41.890;23.446;2023-04-06T08:38:17;7.68;;;6.00;;
39454;SDS011;25155;41.890;23.446;2023-04-06T08:40:44;7.43;;;6.00;;
39454;SDS011;25155;41.890;23.446;2023-04-06T08:43:13;8.90;;;6.25;;
39454;SDS011;25155;41.890;23.446;2023-04-06T08:45:41;8.23;;;5.65;;
39454;SDS011;25155;41.890;23.446;2023-04-06T08:48:09;7.65;;;5.88;;
39454;SDS011;25155;41.890;23.446;2023-04-06T08:50:39;6.63;;;5.43;;
39454;SDS011;25155;41.890;23.446;2023-04-06T08:53:07;8.55;;;5.50;;
39454;SDS011;25155;41.890;23.446;2023-04-06T08:55:34;7.13;;;5.47;;
39454;SDS011;25155;41.890;23.446;2023-04-06T08:58:02;7.55;;;5.68;;
39454;SDS011;25155;41.890;23.446;2023-04-06T09:00:30;7.38;;;5.63;;
39454;SDS011;25155;41.890;23.446;2023-04-06T09:02:58;7.30;;;5.70;;
39454;SDS011;25155;41.890;23.446;2023-04-06T09:05:25;7.35;;;5.28;;
39454;SDS011;25155;41.890;23.446;2023-04-06T09:07:54;7.55;;;5.40;;
39454;SDS011;25155;41.890;23.446;2023-04-06T09:10:21;7.13;;;5.38;;
39454;SDS011;25155;41.890;23.446;2023-04-06T09:12:51;7.20;;;5.55;;
39454;SDS011;25155;41.890;23.446;2023-04-06T09:15:18;6.57;;;5.03;;
39454;SDS011;25155;41.890;23.446;2023-04-06T09:17:46;7.38;;;4.90;;
39454;SDS011;25155;41.890;23.446;2023-04-06T09:20:13;5.93;;;4.43;;
39454;SDS011;25155;41.890;23.446;2023-04-06T09:22:42;5.72;;;4.32;;
39454;SDS011;25155;41.890;23.446;2023-04-06T09:25:17;5.90;;;4.30;;
39454;SDS011;25155;41.890;23.446;2023-04-06T09:27:48;6.18;;;4.50;;
39454;SDS011;25155;41.890;23.446;2023-04-06T09:30:24;5.88;;;4.50;;
39454;SDS011;25155;41.890;23.446;2023-04-06T09:32:52;6.82;;;4.10;;
39454;SDS011;25155;41.890;23.446;2023-04-06T09:35:20;6.55;;;4.28;;
39454;SDS011;25155;41.890;23.446;2023-04-06T09:37:49;6.45;;;4.93;;
39454;SDS011;25155;41.890;23.446;2023-04-06T09:40:19;5.25;;;3.85;;
39454;SDS011;25155;41.890;23.446;2023-04-06T09:42:47;5.97;;;4.60;;
39454;SDS011;25155;41.890;23.446;2023-04-06T09:45:18;6.43;;;4.50;;
39454;SDS011;25155;41.890;23.446;2023-04-06T09:47:46;6.15;;;4.63;;
39454;SDS011;25155;41.890;23.446;2023-04-06T09:50:13;6.45;;;4.50;;
39454;SDS011;25155;41.890;23.446;2023-04-06T09:52:42;5.43;;;3.60;;
39454;SDS011;25155;41.890;23.446;2023-04-06T09:55:17;5.30;;;4.18;;
39454;SDS011;25155;41.890;23.446;2023-04-06T09:57:51;6.40;;;3.60;;
39454;SDS011;25155;41.890;23.446;2023-04-06T10:00:24;5.07;;;3.47;;
39454;SDS011;25155;41.890;23.446;2023-04-06T10:02:55;5.25;;;3.95;;
39454;SDS011;25155;41.890;23.446;2023-04-06T10:05:27;5.57;;;4.28;;
39454;SDS011;25155;41.890;23.446;2023-04-06T10:08:01;5.53;;;3.38;;
39454;SDS011;25155;41.890;23.446;2023-04-06T10:10:34;4.30;;;3.20;;
39454;SDS011;25155;41.890;23.446;2023-04-06T10:13:01;4.43;;;3.25;;
39454;SDS011;25155;41.890;23.446;2023-04-06T10:15:29;4.90;;;3.38;;
39454;SDS011;25155;41.890;23.446;2023-04-06T10:17:57;4.85;;;3.33;;
39454;SDS011;25155;41.890;23.446;2023-04-06T10:20:26;6.65;;;3.55;;
39454;SDS011;25155;41.890;23.446;2023-04-06T10:22:59;7.65;;;3.47;;
39454;SDS011;25155;41.890;23.446;2023-04-06T10:25:32;29.67;;;5.57;;
39454;SDS011;25155;41.890;23.446;2023-04-06T10:28:04;4.82;;;3.40;;
39454;SDS011;25155;41.890;23.446;2023-04-06T10:30:32;4.15;;;2.80;;
39454;SDS011;25155;41.890;23.446;2023-04-06T10:33:00;4.32;;;3.03;;
39454;SDS011;25155;41.890;23.446;2023-04-06T10:35:39;6.30;;;3.70;;
39454;SDS011;25155;41.890;23.446;2023-04-06T10:38:06;4.13;;;2.92;;
39454;SDS011;25155;41.890;23.446;2023-04-06T10:40:36;4.43;;;2.78;;
39454;SDS011;25155;41.890;23.446;2023-04-06T10:43:08;3.85;;;2.50;;
39454;SDS011;25155;41.890;23.446;2023-04-06T10:48:12;5.55;;;2.70;;
39454;SDS011;25155;41.890;23.446;2023-04-06T10:50:41;6.55;;;2.83;;
39454;SDS011;25155;41.890;23.446;2023-04-06T10:53:08;4.15;;;2.90;;
39454;SDS011;25155;41.890;23.446;2023-04-06T10:55:37;4.25;;;3.13;;
39454;SDS011;25155;41.890;23.446;2023-04-06T10:58:06;4.28;;;3.15;;
39454;SDS011;25155;41.890;23.446;2023-04-06T11:00:33;5.03;;;3.40;;
39454;SDS011;25155;41.890;23.446;2023-04-06T11:03:01;7.80;;;3.85;;
39454;SDS011;25155;41.890;23.446;2023-04-06T11:05:28;4.75;;;3.25;;
39454;SDS011;25155;41.890;23.446;2023-04-06T11:07:56;4.90;;;3.38;;
39454;SDS011;25155;41.890;23.446;2023-04-06T11:10:23;4.72;;;3.45;;
39454;SDS011;25155;41.890;23.446;2023-04-06T11:12:55;5.45;;;3.70;;
39454;SDS011;25155;41.890;23.446;2023-04-06T11:15:23;5.60;;;3.40;;
39454;SDS011;25155;41.890;23.446;2023-04-06T11:17:50;6.00;;;3.25;;
39454;SDS011;25155;41.890;23.446;2023-04-06T11:20:17;4.60;;;3.30;;
39454;SDS011;25155;41.890;23.446;2023-04-06T11:22:48;4.30;;;3.15;;
39454;SDS011;25155;41.890;23.446;2023-04-06T11:25:16;4.72;;;3.30;;
39454;SDS011;25155;41.890;23.446;2023-04-06T11:27:44;5.15;;;3.38;;
39454;SDS011;25155;41.890;23.446;2023-04-06T11:30:14;5.03;;;3.30;;
39454;SDS011;25155;41.890;23.446;2023-04-06T11:32:42;4.60;;;3.22;;
39454;SDS011;25155;41.890;23.446;2023-04-06T11:35:10;5.18;;;2.97;;
39454;SDS011;25155;41.890;23.446;2023-04-06T11:37:39;4.43;;;3.20;;
39454;SDS011;25155;41.890;23.446;2023-04-06T11:40:08;5.07;;;3.30;;
39454;SDS011;25155;41.890;23.446;2023-04-06T11:42:36;6.03;;;3.38;;
39454;SDS011;25155;41.890;23.446;2023-04-06T11:45:03;5.03;;;3.17;;
39454;SDS011;25155;41.890;23.446;2023-04-06T11:47:35;4.78;;;3.42;;
39454;SDS011;25155;41.890;23.446;2023-04-06T11:50:06;4.95;;;3.60;;
39454;SDS011;25155;41.890;23.446;2023-04-06T11:52:35;5.10;;;3.40;;
39454;SDS011;25155;41.890;23.446;2023-04-06T11:55:10;5.80;;;3.70;;
39454;SDS011;25155;41.890;23.446;2023-04-06T11:57:38;5.82;;;3.33;;
39454;SDS011;25155;41.890;23.446;2023-04-06T12:00:06;4.53;;;3.10;;
39454;SDS011;25155;41.890;23.446;2023-04-06T12:02:36;4.30;;;3.10;;
39454;SDS011;25155;41.890;23.446;2023-04-06T12:05:03;5.78;;;3.38;;
39454;SDS011;25155;41.890;23.446;2023-04-06T12:07:32;4.78;;;3.17;;
39454;SDS011;25155;41.890;23.446;2023-04-06T12:10:00;4.50;;;2.78;;
39454;SDS011;25155;41.890;23.446;2023-04-06T12:12:29;4.22;;;3.08;;
39454;SDS011;25155;41.890;23.446;2023-04-06T12:14:56;5.50;;;3.13;;
39454;SDS011;25155;41.890;23.446;2023-04-06T12:17:25;5.03;;;3.50;;
39454;SDS011;25155;41.890;23.446;2023-04-06T12:19:53;4.13;;;3.00;;
39454;SDS011;25155;41.890;23.446;2023-04-06T12:22:21;4.63;;;3.10;;
39454;SDS011;25155;41.890;23.446;2023-04-06T12:24:48;4.20;;;2.90;;
39454;SDS011;25155;41.890;23.446;2023-04-06T12:27:15;4.35;;;3.20;;
39454;SDS011;25155;41.890;23.446;2023-04-06T12:29:42;4.93;;;3.28;;
39454;SDS011;25155;41.890;23.446;2023-04-06T12:32:09;4.65;;;3.33;;
39454;SDS011;25155;41.890;23.446;2023-04-06T12:34:37;6.00;;;3.25;;
39454;SDS011;25155;41.890;23.446;2023-04-06T12:37:06;4.68;;;3.40;;
39454;SDS011;25155;41.890;23.446;2023-04-06T12:39:33;5.28;;;3.50;;
39454;SDS011;25155;41.890;23.446;2023-04-06T12:42:00;4.50;;;3.10;;
39454;SDS011;25155;41.890;23.446;2023-04-06T12:44:28;4.78;;;3.42;;
39454;SDS011;25155;41.890;23.446;2023-04-06T12:46:56;5.10;;;3.50;;
39454;SDS011;25155;41.890;23.446;2023-04-06T12:49:23;5.45;;;3.88;;
39454;SDS011;25155;41.890;23.446;2023-04-06T12:51:50;4.93;;;3.50;;
39454;SDS011;25155;41.890;23.446;2023-04-06T12:54:19;4.63;;;3.60;;
39454;SDS011;25155;41.890;23.446;2023-04-06T12:56:46;4.47;;;3.63;;
39454;SDS011;25155;41.890;23.446;2023-04-06T12:59:13;4.57;;;3.60;;
39454;SDS011;25155;41.890;23.446;2023-04-06T13:01:41;4.80;;;3.60;;
39454;SDS011;25155;41.890;23.446;2023-04-06T13:04:09;5.18;;;4.00;;
39454;SDS011;25155;41.890;23.446;2023-04-06T13:06:36;5.43;;;3.50;;
39454;SDS011;25155;41.890;23.446;2023-04-06T13:09:03;4.60;;;3.50;;
39454;SDS011;25155;41.890;23.446;2023-04-06T13:11:32;5.07;;;3.80;;
39454;SDS011;25155;41.890;23.446;2023-04-06T13:13:59;4.35;;;3.40;;
39454;SDS011;25155;41.890;23.446;2023-04-06T13:16:27;4.65;;;3.58;;
39454;SDS011;25155;41.890;23.446;2023-04-06T13:18:54;4.80;;;3.70;;
39454;SDS011;25155;41.890;23.446;2023-04-06T13:21:21;5.13;;;3.65;;
39454;SDS011;25155;41.890;23.446;2023-04-06T13:23:48;5.97;;;3.70;;
39454;SDS011;25155;41.890;23.446;2023-04-06T13:26:16;5.40;;;3.75;;
39454;SDS011;25155;41.890;23.446;2023-04-06T13:28:45;4.88;;;3.78;;
39454;SDS011;25155;41.890;23.446;2023-04-06T13:31:12;5.10;;;4.05;;
39454;SDS011;25155;41.890;23.446;2023-04-06T13:33:40;6.68;;;3.97;;
39454;SDS011;25155;41.890;23.446;2023-04-06T13:36:07;4.82;;;3.65;;
39454;SDS011;25155;41.890;23.446;2023-04-06T13:38:34;5.80;;;4.10;;
39454;SDS011;25155;41.890;23.446;2023-04-06T13:41:04;4.93;;;3.70;;
39454;SDS011;25155;41.890;23.446;2023-04-06T13:43:31;5.15;;;3.85;;
39454;SDS011;25155;41.890;23.446;2023-04-06T13:46:00;5.32;;;3.90;;
39454;SDS011;25155;41.890;23.446;2023-04-06T13:48:27;4.88;;;3.50;;
39454;SDS011;25155;41.890;23.446;2023-04-06T13:50:54;5.50;;;3.83;;
39454;SDS011;25155;41.890;23.446;2023-04-06T13:53:21;6.15;;;4.25;;
39454;SDS011;25155;41.890;23.446;2023-04-06T13:55:54;5.20;;;3.92;;
39454;SDS011;25155;41.890;23.446;2023-04-06T13:58:22;5.60;;;3.90;;
39454;SDS011;25155;41.890;23.446;2023-04-06T14:00:49;5.38;;;3.90;;
39454;SDS011;25155;41.890;23.446;2023-04-06T14:03:17;5.22;;;4.03;;
39454;SDS011;25155;41.890;23.446;2023-04-06T14:05:45;5.18;;;3.88;;
39454;SDS011;25155;41.890;23.446;2023-04-06T14:08:12;5.97;;;4.28;;
39454;SDS011;25155;41.890;23.446;2023-04-06T14:10:40;5.35;;;4.18;;
39454;SDS011;25155;41.890;23.446;2023-04-06T14:13:08;7.93;;;4.63;;
39454;SDS011;25155;41.890;23.446;2023-04-06T14:15:54;5.60;;;4.20;;
39454;SDS011;25155;41.890;23.446;2023-04-06T14:18:24;6.32;;;4.68;;
39454;SDS011;25155;41.890;23.446;2023-04-06T14:20:53;5.78;;;3.95;;
39454;SDS011;25155;41.890;23.446;2023-04-06T14:23:21;6.10;;;4.72;;
39454;SDS011;25155;41.890;23.446;2023-04-06T14:25:50;5.82;;;4.70;;
39454;SDS011;25155;41.890;23.446;2023-04-06T14:28:18;6.07;;;4.22;;
39454;SDS011;25155;41.890;23.446;2023-04-06T14:30:47;6.43;;;4.78;;
39454;SDS011;25155;41.890;23.446;2023-04-06T14:33:14;5.82;;;4.40;;
39454;SDS011;25155;41.890;23.446;2023-04-06T14:35:43;5.88;;;4.38;;
39454;SDS011;25155;41.890;23.446;2023-04-06T14:38:10;6.90;;;4.93;;